Republica Dominicana

TAF-AILA

SANTO DOMINGO 11 DE AGOSTO DEL 2020

                                                                                                 AEROP. INT. LAS AMERICAS JFPG-

 

 

 

FTDR31 MDSD 110400Z
TAF

TAF MDPP 110400Z 1206/1306 00000KT 9999 SCT018=

TAF MDST 110400Z 1206/1306 14006KT 9999 SCT020 BECMG 1208/1210 00000KT=

TAF MDPC 110400Z 1206/1306 08010KT 9999 SCT018 SCT300 PROB30 1206/1210 8000 -TSRA FEW016CB BKN017 BKN300=

TAF MDBH 110400Z 1206/1306 13010KT 9999 FEW018 SCT300 BECMG 1210/1212 00000KT=

TAF MDJB 110400Z 1206/1306 00000KT 9999 FEW018 SCT300 BECMG 1213/1215 06006KT=

TAF MDSD 110400Z 1206/1306 02004KT 9999 FEW017CB SCT020 SCT300 PROB30 1212/1218 8000 –TSRA FEW015CB BKN016=

TAF MDLR 110400Z 1206/1306 07008KT 9999 SCT016 BKN300 PROB30 1206/1209 8000 –SH FEW015CB BKN016 BKN300 BECMG 1209/1211 00000KT=

TAF MDCY 110400Z 1206/1306 00000KT 9999 SCT020 PROB30 1206/1212 8000 –SH BKN016=

 

MDPP AEROPUERTO INTERNACIONAL LA UNION PUERTO PLATA

MDST AEROPUERTO INTERNACIONAL DE SANTIAGO

MDPC AEROPUERTO INTERNACIONAL PUNTA CANA

MDBH AEROPUERTO INTERNACIONAL DE BARAHONA

MDJB AEROPUERTO INTERNACIONAL JOAQUIN BALAGUER

MDSD AEROPUERTO INTERNACIONAL LAS AMERICAS

MDLR AEROPUERTO INTERNACIONAL LA ROMANA

MDCY AEROPUERTO INTERNACIONAL DE CATEY

 

BILLY DE LA CRUZ

MDPP// D OGANDO

MDST// DORIS RAMOS

MDPC// M. FAMILIA

MDLR// FRANKLIN GOMEZ

 




Tamaño letra

Contraste

Otros